^^
Station Historical Data
Daily Summary for January 2, 2018 Units:  Both    English   Metric
« Previous Day
Next Day »
Daily Weekly Monthly Yearly Custom
  High: Low: Average:
Temperature: TemperatureF °F /  -17.8 °C 65.5 °F /  18.6 °C 77.5 °F /  25.3 °C
Dew Point: DewpointF °F /  -17.8 °C 29.8 °F /  -1.2 °C 33.7 °F /  0.9 °C
Humidity: Humidity% 17% 20%
Wind Speed: WindSpeedMPHmph /  0km/h - -12.2mph /  -19.6km/h
Wind Gust: WindSpeedGustMPHmph /  0km/h - -
Wind- -
Pressure: PressureIn in /  0 hPa 30.08 in /  1018.5 hPa -
Precipitation: 0.00 in /  0 mm    
Historical Graphs
 
 
Tabular Data for January 2, 2018
Time Temperature Dew Point Pressure Wind Wind Speed Wind Gust Humidity Rainfall Rate (Hourly) solar Conditions
TemperatureF °F /  -17.8 °C DewpointF °F /  -17.8 °C PressureInin /  0hPa Calm     Humidity% HourlyPrecipInin /  0mm SoftwareType W/m2 Conditions
09:01 65.5 °F /  18.6 °C 30.6 °F /  -0.8 °C 30.14in /  1020.5hPa North -999.9mph /  -1609.1km/h -999.0mph /  -1607.7km/h 27% 0.00in /  0mm meteobridge W/m2
09:07 65.7 °F /  18.7 °C 29.8 °F /  -1.2 °C 30.15in /  1020.9hPa North 17.9mph /  28.8km/h 22.0mph /  35.4km/h 26% 0.00in /  0mm meteobridge W/m2
09:13 66.0 °F /  18.9 °C 30.2 °F /  -1 °C 30.15in /  1020.9hPa North 14.1mph /  22.7km/h 24.0mph /  38.6km/h 26% 0.00in /  0mm meteobridge W/m2
09:21 66.6 °F /  19.2 °C 30.6 °F /  -0.8 °C 30.16in /  1021.2hPa NNW 14.1mph /  22.7km/h 23.0mph /  37km/h 26% 0.00in /  0mm meteobridge W/m2
09:27 67.1 °F /  19.5 °C 31.1 °F /  -0.5 °C 30.16in /  1021.2hPa North 15.0mph /  24.1km/h 20.0mph /  32.2km/h 26% 0.00in /  0mm meteobridge W/m2
09:33 67.5 °F /  19.7 °C 31.5 °F /  -0.3 °C 30.17in /  1021.6hPa North 6.0mph /  9.7km/h 20.0mph /  32.2km/h 26% 0.00in /  0mm meteobridge W/m2
09:40 67.6 °F /  19.8 °C 31.5 °F /  -0.3 °C 30.17in /  1021.6hPa North 10.1mph /  16.3km/h 19.0mph /  30.6km/h 26% 0.00in /  0mm meteobridge W/m2
09:46 68.4 °F /  20.2 °C 31.1 °F /  -0.5 °C 30.17in /  1021.6hPa North 15.0mph /  24.1km/h 19.0mph /  30.6km/h 25% 0.00in /  0mm meteobridge W/m2
09:50 68.5 °F /  20.3 °C 31.3 °F /  -0.4 °C 30.17in /  1021.6hPa NNE 15.0mph /  24.1km/h 16.0mph /  25.7km/h 25% 0.00in /  0mm meteobridge W/m2
09:56 69.1 °F /  20.6 °C 31.8 °F /  -0.1 °C 30.18in /  1021.9hPa NNW 12.1mph /  19.5km/h 16.0mph /  25.7km/h 25% 0.00in /  0mm meteobridge W/m2
10:02 69.6 °F /  20.9 °C 31.3 °F /  -0.4 °C 30.18in /  1021.9hPa North 10.1mph /  16.3km/h 13.0mph /  20.9km/h 24% 0.00in /  0mm meteobridge W/m2
10:08 70.2 °F /  21.2 °C 31.6 °F /  -0.2 °C 30.18in /  1021.9hPa North 16.1mph /  25.9km/h 17.0mph /  27.4km/h 24% 0.00in /  0mm meteobridge W/m2
10:14 70.9 °F /  21.6 °C 31.3 °F /  -0.4 °C 30.18in /  1021.9hPa NNE 17.9mph /  28.8km/h 21.0mph /  33.8km/h 23% 0.00in /  0mm meteobridge W/m2
10:20 70.9 °F /  21.6 °C 32.4 °F /  0.2 °C 30.19in /  1022.2hPa NNE 8.1mph /  13km/h 16.0mph /  25.7km/h 24% 0.00in /  0mm meteobridge W/m2
10:27 71.6 °F /  22 °C 31.8 °F /  -0.1 °C 30.19in /  1022.2hPa NNE 4.0mph /  6.4km/h 15.0mph /  24.1km/h 23% 0.00in /  0mm meteobridge W/m2
10:33 72.0 °F /  22.2 °C 32.2 °F /  0.1 °C 30.20in /  1022.6hPa NNW 10.1mph /  16.3km/h 17.0mph /  27.4km/h 23% 0.00in /  0mm meteobridge W/m2
10:39 72.1 °F /  22.3 °C 32.4 °F /  0.2 °C 30.20in /  1022.6hPa NNE 11.0mph /  17.7km/h 15.0mph /  24.1km/h 23% 0.00in /  0mm meteobridge W/m2
10:45 72.0 °F /  22.2 °C 32.2 °F /  0.1 °C 30.19in /  1022.2hPa NNE 6.0mph /  9.7km/h 23.0mph /  37km/h 23% 0.00in /  0mm meteobridge W/m2
10:51 72.3 °F /  22.4 °C 31.3 °F /  -0.4 °C 30.19in /  1022.2hPa North 13.0mph /  20.9km/h 17.0mph /  27.4km/h 22% 0.00in /  0mm meteobridge W/m2
10:57 73.2 °F /  22.9 °C 32.2 °F /  0.1 °C 30.19in /  1022.2hPa NNW 4.9mph /  7.9km/h 9.0mph /  14.5km/h 22% 0.00in /  0mm meteobridge W/m2
11:03 73.2 °F /  22.9 °C 32.2 °F /  0.1 °C 30.19in /  1022.2hPa North 11.0mph /  17.7km/h 17.0mph /  27.4km/h 22% 0.00in /  0mm meteobridge W/m2
11:10 73.6 °F /  23.1 °C 32.4 °F /  0.2 °C 30.20in /  1022.6hPa North 4.9mph /  7.9km/h 12.0mph /  19.3km/h 22% 0.00in /  0mm meteobridge W/m2
11:16 74.3 °F /  23.5 °C 33.1 °F /  0.6 °C 30.20in /  1022.6hPa NE 2.9mph /  4.7km/h 13.0mph /  20.9km/h 22% 0.00in /  0mm meteobridge W/m2
11:22 74.5 °F /  23.6 °C 33.1 °F /  0.6 °C 30.19in /  1022.2hPa North 6.0mph /  9.7km/h 12.0mph /  19.3km/h 22% 0.00in /  0mm meteobridge W/m2
11:28 74.8 °F /  23.8 °C 33.4 °F /  0.8 °C 30.19in /  1022.2hPa NNW 8.9mph /  14.3km/h 12.0mph /  19.3km/h 22% 0.00in /  0mm meteobridge W/m2
11:34 75.4 °F /  24.1 °C 32.7 °F /  0.4 °C 30.18in /  1021.9hPa North 13.0mph /  20.9km/h 13.0mph /  20.9km/h 21% 0.00in /  0mm meteobridge W/m2
11:36 75.6 °F /  24.2 °C 32.9 °F /  0.5 °C 30.19in /  1022.2hPa NNW 10.1mph /  16.3km/h 16.0mph /  25.7km/h 21% 0.00in /  0mm meteobridge W/m2
11:42 75.7 °F /  24.3 °C 33.1 °F /  0.6 °C 30.18in /  1021.9hPa North 10.1mph /  16.3km/h 15.0mph /  24.1km/h 21% 0.00in /  0mm meteobridge W/m2
11:48 75.9 °F /  24.4 °C 33.3 °F /  0.7 °C 30.19in /  1022.2hPa North 8.1mph /  13km/h 20.0mph /  32.2km/h 21% 0.00in /  0mm meteobridge W/m2
11:56 75.7 °F /  24.3 °C 33.1 °F /  0.6 °C 30.18in /  1021.9hPa North 16.1mph /  25.9km/h 16.1mph /  25.9km/h 21% 0.00in /  0mm meteobridge W/m2
12:03 75.6 °F /  24.2 °C 32.9 °F /  0.5 °C 30.19in /  1022.2hPa NNW 6.0mph /  9.7km/h 11.0mph /  17.7km/h 21% 0.00in /  0mm meteobridge W/m2
12:09 77.2 °F /  25.1 °C 34.2 °F /  1.2 °C 30.19in /  1022.2hPa North 12.1mph /  19.5km/h 12.1mph /  19.5km/h 21% 0.00in /  0mm meteobridge W/m2
12:15 77.0 °F /  25 °C 34.2 °F /  1.2 °C 30.18in /  1021.9hPa NNE 4.0mph /  6.4km/h 7.0mph /  11.3km/h 21% 0.00in /  0mm meteobridge W/m2
12:21 76.8 °F /  24.9 °C 34.0 °F /  1.1 °C 30.18in /  1021.9hPa NNE 6.9mph /  11.1km/h 9.0mph /  14.5km/h 21% 0.00in /  0mm meteobridge W/m2
12:27 77.2 °F /  25.1 °C 34.2 °F /  1.2 °C 30.18in /  1021.9hPa NNW 4.0mph /  6.4km/h 7.0mph /  11.3km/h 21% 0.00in /  0mm meteobridge W/m2
12:33 78.6 °F /  25.9 °C 34.2 °F /  1.2 °C 30.18in /  1021.9hPa NNE 4.0mph /  6.4km/h 10.0mph /  16.1km/h 20% 0.00in /  0mm meteobridge W/m2
12:39 78.8 °F /  26 °C 34.3 °F /  1.3 °C 30.18in /  1021.9hPa North 6.0mph /  9.7km/h 13.0mph /  20.9km/h 20% 0.00in /  0mm meteobridge W/m2
12:45 78.1 °F /  25.6 °C 33.8 °F /  1 °C 30.18in /  1021.9hPa NE 2.9mph /  4.7km/h 5.0mph /  8km/h 20% 0.00in /  0mm meteobridge W/m2
12:51 78.4 °F /  25.8 °C 34.0 °F /  1.1 °C 30.18in /  1021.9hPa NNE 4.9mph /  7.9km/h 10.0mph /  16.1km/h 20% 0.00in /  0mm meteobridge W/m2
12:58 80.2 °F /  26.8 °C 35.6 °F /  2 °C 30.18in /  1021.9hPa NNE 6.9mph /  11.1km/h 7.0mph /  11.3km/h 20% 0.00in /  0mm meteobridge W/m2
13:04 80.8 °F /  27.1 °C 34.7 °F /  1.5 °C 30.17in /  1021.6hPa North 4.0mph /  6.4km/h 12.0mph /  19.3km/h 19% 0.00in /  0mm meteobridge W/m2
13:10 80.4 °F /  26.9 °C 34.3 °F /  1.3 °C 30.17in /  1021.6hPa West 0.9mph /  1.4km/h 4.0mph /  6.4km/h 19% 0.00in /  0mm meteobridge W/m2
13:16 80.1 °F /  26.7 °C 34.2 °F /  1.2 °C 30.17in /  1021.6hPa North 13.0mph /  20.9km/h 16.0mph /  25.7km/h 19% 0.00in /  0mm meteobridge W/m2
13:22 79.9 °F /  26.6 °C 35.2 °F /  1.8 °C 30.17in /  1021.6hPa NNE 10.1mph /  16.3km/h 13.0mph /  20.9km/h 20% 0.00in /  0mm meteobridge W/m2
13:28 79.5 °F /  26.4 °C 34.9 °F /  1.6 °C 30.17in /  1021.6hPa NNW 2.9mph /  4.7km/h 10.0mph /  16.1km/h 20% 0.00in /  0mm meteobridge W/m2
13:35 80.8 °F /  27.1 °C 34.7 °F /  1.5 °C 30.16in /  1021.2hPa NW 0.9mph /  1.4km/h 11.0mph /  17.7km/h 19% 0.00in /  0mm meteobridge W/m2
13:37 81.3 °F /  27.4 °C 35.1 °F /  1.7 °C 30.16in /  1021.2hPa North 12.1mph /  19.5km/h 14.0mph /  22.5km/h 19% 0.00in /  0mm meteobridge W/m2
13:43 80.8 °F /  27.1 °C 34.7 °F /  1.5 °C 30.16in /  1021.2hPa NE 6.0mph /  9.7km/h 11.0mph /  17.7km/h 19% 0.00in /  0mm meteobridge W/m2
13:49 82.4 °F /  28 °C 36.0 °F /  2.2 °C 30.16in /  1021.2hPa NNW 10.1mph /  16.3km/h 10.1mph /  16.3km/h 19% 0.00in /  0mm meteobridge W/m2
13:55 81.7 °F /  27.6 °C 35.4 °F /  1.9 °C 30.15in /  1020.9hPa NW 6.9mph /  11.1km/h 15.0mph /  24.1km/h 19% 0.00in /  0mm meteobridge W/m2
14:01 81.0 °F /  27.2 °C 34.9 °F /  1.6 °C 30.15in /  1020.9hPa North 11.0mph /  17.7km/h 16.0mph /  25.7km/h 19% 0.00in /  0mm meteobridge W/m2
14:07 80.1 °F /  26.7 °C 35.4 °F /  1.9 °C 30.16in /  1021.2hPa North 4.9mph /  7.9km/h 17.0mph /  27.4km/h 20% 0.00in /  0mm meteobridge W/m2
14:13 80.6 °F /  27 °C 34.5 °F /  1.4 °C 30.14in /  1020.5hPa North 6.9mph /  11.1km/h 11.0mph /  17.7km/h 19% 0.00in /  0mm meteobridge W/m2
14:20 81.0 °F /  27.2 °C 34.9 °F /  1.6 °C 30.14in /  1020.5hPa NE 2.9mph /  4.7km/h 5.0mph /  8km/h 19% 0.00in /  0mm meteobridge W/m2
14:26 82.6 °F /  28.1 °C 36.1 °F /  2.3 °C 30.14in /  1020.5hPa NNE 11.0mph /  17.7km/h 16.0mph /  25.7km/h 19% 0.00in /  0mm meteobridge W/m2
14:32 81.1 °F /  27.3 °C 35.1 °F /  1.7 °C 30.14in /  1020.5hPa ESE 6.9mph /  11.1km/h 17.0mph /  27.4km/h 19% 0.00in /  0mm meteobridge W/m2
14:40 82.0 °F /  27.8 °C 35.8 °F /  2.1 °C 30.14in /  1020.5hPa NE 6.0mph /  9.7km/h 12.0mph /  19.3km/h 19% 0.00in /  0mm meteobridge W/m2
14:46 82.4 °F /  28 °C 36.0 °F /  2.2 °C 30.14in /  1020.5hPa NNE 11.0mph /  17.7km/h 13.0mph /  20.9km/h 19% 0.00in /  0mm meteobridge W/m2
14:52 82.0 °F /  27.8 °C 35.8 °F /  2.1 °C 30.13in /  1020.2hPa North 4.9mph /  7.9km/h 14.0mph /  22.5km/h 19% 0.00in /  0mm meteobridge W/m2
14:58 81.7 °F /  27.6 °C 35.4 °F /  1.9 °C 30.13in /  1020.2hPa NNE 4.9mph /  7.9km/h 14.0mph /  22.5km/h 19% 0.00in /  0mm meteobridge W/m2
15:04 82.0 °F /  27.8 °C 35.8 °F /  2.1 °C 30.13in /  1020.2hPa NNE 14.1mph /  22.7km/h 16.0mph /  25.7km/h 19% 0.00in /  0mm meteobridge W/m2
15:10 81.9 °F /  27.7 °C 35.6 °F /  2 °C 30.13in /  1020.2hPa North 14.1mph /  22.7km/h 14.1mph /  22.7km/h 19% 0.00in /  0mm meteobridge W/m2
15:17 82.0 °F /  27.8 °C 35.8 °F /  2.1 °C 30.13in /  1020.2hPa North 11.0mph /  17.7km/h 15.0mph /  24.1km/h 19% 0.00in /  0mm meteobridge W/m2
15:23 82.4 °F /  28 °C 34.7 °F /  1.5 °C 30.13in /  1020.2hPa NNW 10.1mph /  16.3km/h 12.0mph /  19.3km/h 18% 0.00in /  0mm meteobridge W/m2
15:29 82.8 °F /  28.2 °C 34.9 °F /  1.6 °C 30.12in /  1019.9hPa NE 6.0mph /  9.7km/h 7.0mph /  11.3km/h 18% 0.00in /  0mm meteobridge W/m2
15:35 83.8 °F /  28.8 °C 35.8 °F /  2.1 °C 30.12in /  1019.9hPa NE 4.9mph /  7.9km/h 7.0mph /  11.3km/h 18% 0.00in /  0mm meteobridge W/m2
15:39 84.2 °F /  29 °C 36.1 °F /  2.3 °C 30.12in /  1019.9hPa NNE 4.0mph /  6.4km/h 8.0mph /  12.9km/h 18% 0.00in /  0mm meteobridge W/m2
15:45 84.0 °F /  28.9 °C 36.0 °F /  2.2 °C 30.11in /  1019.5hPa NNE 0.9mph /  1.4km/h 6.0mph /  9.7km/h 18% 0.00in /  0mm meteobridge W/m2
15:51 84.0 °F /  28.9 °C 36.0 °F /  2.2 °C 30.11in /  1019.5hPa NE 2.0mph /  3.2km/h 12.0mph /  19.3km/h 18% 0.00in /  0mm meteobridge W/m2
15:55 83.7 °F /  28.7 °C 35.6 °F /  2 °C 30.11in /  1019.5hPa South 2.9mph /  4.7km/h 6.0mph /  9.7km/h 18% 0.00in /  0mm meteobridge W/m2
16:01 85.3 °F /  29.6 °C 35.6 °F /  2 °C 30.10in /  1019.2hPa North 6.9mph /  11.1km/h 11.0mph /  17.7km/h 17% 0.00in /  0mm meteobridge W/m2
16:07 85.3 °F /  29.6 °C 35.6 °F /  2 °C 30.10in /  1019.2hPa North 13.0mph /  20.9km/h 20.0mph /  32.2km/h 17% 0.00in /  0mm meteobridge W/m2
16:16 83.5 °F /  28.6 °C 35.6 °F /  2 °C 30.10in /  1019.2hPa Calm   1.0mph /  1.6km/h 18% 0.00in /  0mm meteobridge W/m2
16:22 82.9 °F /  28.3 °C 35.1 °F /  1.7 °C 30.10in /  1019.2hPa SSW 2.0mph /  3.2km/h 6.0mph /  9.7km/h 18% 0.00in /  0mm meteobridge W/m2
16:30 83.7 °F /  28.7 °C 35.6 °F /  2 °C 30.10in /  1019.2hPa SSE 2.0mph /  3.2km/h 6.0mph /  9.7km/h 18% 0.00in /  0mm meteobridge W/m2
16:36 83.5 °F /  28.6 °C 35.6 °F /  2 °C 30.09in /  1018.8hPa NNW 0.9mph /  1.4km/h 13.0mph /  20.9km/h 18% 0.00in /  0mm meteobridge W/m2
16:42 82.0 °F /  27.8 °C 34.3 °F /  1.3 °C 30.09in /  1018.8hPa NNE 11.0mph /  17.7km/h 14.0mph /  22.5km/h 18% 0.00in /  0mm meteobridge W/m2
16:48 81.0 °F /  27.2 °C 34.9 °F /  1.6 °C 30.09in /  1018.8hPa NNE 2.9mph /  4.7km/h 15.0mph /  24.1km/h 19% 0.00in /  0mm meteobridge W/m2
16:54 81.3 °F /  27.4 °C 35.1 °F /  1.7 °C 30.09in /  1018.8hPa North 10.1mph /  16.3km/h 12.0mph /  19.3km/h 19% 0.00in /  0mm meteobridge W/m2
16:56 81.7 °F /  27.6 °C 35.4 °F /  1.9 °C 30.09in /  1018.8hPa NNE 6.9mph /  11.1km/h 10.0mph /  16.1km/h 19% 0.00in /  0mm meteobridge W/m2
17:02 82.6 °F /  28.1 °C 34.7 °F /  1.5 °C 30.09in /  1018.8hPa NNE 4.9mph /  7.9km/h 9.0mph /  14.5km/h 18% 0.00in /  0mm meteobridge W/m2
17:09 82.0 °F /  27.8 °C 34.3 °F /  1.3 °C 30.09in /  1018.8hPa Calm   11.0mph /  17.7km/h 18% 0.00in /  0mm meteobridge W/m2
17:15 81.3 °F /  27.4 °C 33.8 °F /  1 °C 30.09in /  1018.8hPa NE 6.0mph /  9.7km/h 9.0mph /  14.5km/h 18% 0.00in /  0mm meteobridge W/m2
17:21 81.0 °F /  27.2 °C 34.9 °F /  1.6 °C 30.08in /  1018.5hPa North 2.9mph /  4.7km/h 12.0mph /  19.3km/h 19% 0.00in /  0mm meteobridge W/m2
17:27 80.6 °F /  27 °C 34.5 °F /  1.4 °C 30.09in /  1018.8hPa North 4.0mph /  6.4km/h 9.0mph /  14.5km/h 19% 0.00in /  0mm meteobridge W/m2
17:31 80.6 °F /  27 °C 34.5 °F /  1.4 °C 30.09in /  1018.8hPa NNE 2.0mph /  3.2km/h 5.0mph /  8km/h 19% 0.00in /  0mm meteobridge W/m2
17:37 80.8 °F /  27.1 °C 34.7 °F /  1.5 °C 30.09in /  1018.8hPa NNE 0.9mph /  1.4km/h 2.0mph /  3.2km/h 19% 0.00in /  0mm meteobridge W/m2
17:43 80.8 °F /  27.1 °C 34.7 °F /  1.5 °C 30.09in /  1018.8hPa Calm   5.0mph /  8km/h 19% 0.00in /  0mm meteobridge W/m2
17:49 81.0 °F /  27.2 °C 34.9 °F /  1.6 °C 30.09in /  1018.8hPa NNW 0.9mph /  1.4km/h 4.0mph /  6.4km/h 19% 0.00in /  0mm meteobridge W/m2
17:55 81.0 °F /  27.2 °C 34.9 °F /  1.6 °C 30.09in /  1018.8hPa North 4.0mph /  6.4km/h 9.0mph /  14.5km/h 19% 0.00in /  0mm meteobridge W/m2
18:01 81.0 °F /  27.2 °C 34.9 °F /  1.6 °C 30.09in /  1018.8hPa North 4.9mph /  7.9km/h 11.0mph /  17.7km/h 19% 0.00in /  0mm meteobridge W/m2
18:08 80.4 °F /  26.9 °C 34.3 °F /  1.3 °C 30.09in /  1018.8hPa NNW 0.9mph /  1.4km/h 1.0mph /  1.6km/h 19% 0.00in /  0mm meteobridge W/m2
18:14 80.2 °F /  26.8 °C 34.2 °F /  1.2 °C 30.09in /  1018.8hPa SSW 4.0mph /  6.4km/h 8.0mph /  12.9km/h 19% 0.00in /  0mm meteobridge W/m2
18:20 79.5 °F /  26.4 °C 33.6 °F /  0.9 °C 30.10in /  1019.2hPa West 2.9mph /  4.7km/h 5.0mph /  8km/h 19% 0.00in /  0mm meteobridge W/m2
18:26 80.1 °F /  26.7 °C 34.2 °F /  1.2 °C 30.10in /  1019.2hPa NNW 6.9mph /  11.1km/h 12.0mph /  19.3km/h 19% 0.00in /  0mm meteobridge W/m2
18:32 80.2 °F /  26.8 °C 34.2 °F /  1.2 °C 30.10in /  1019.2hPa SW 4.0mph /  6.4km/h 5.0mph /  8km/h 19% 0.00in /  0mm meteobridge W/m2
18:38 80.2 °F /  26.8 °C 34.2 °F /  1.2 °C 30.10in /  1019.2hPa West 6.9mph /  11.1km/h 8.0mph /  12.9km/h 19% 0.00in /  0mm meteobridge W/m2
18:44 81.0 °F /  27.2 °C 34.9 °F /  1.6 °C 30.10in /  1019.2hPa SE 2.9mph /  4.7km/h 5.0mph /  8km/h 19% 0.00in /  0mm meteobridge W/m2
18:51 81.7 °F /  27.6 °C 35.4 °F /  1.9 °C 30.10in /  1019.2hPa Calm   7.0mph /  11.3km/h 19% 0.00in /  0mm meteobridge W/m2
18:57 81.5 °F /  27.5 °C 35.2 °F /  1.8 °C 30.10in /  1019.2hPa SW 2.0mph /  3.2km/h 5.0mph /  8km/h 19% 0.00in /  0mm meteobridge W/m2
19:03 80.4 °F /  26.9 °C 34.3 °F /  1.3 °C 30.10in /  1019.2hPa SW 0.9mph /  1.4km/h 4.0mph /  6.4km/h 19% 0.00in /  0mm meteobridge W/m2
19:09 79.3 °F /  26.3 °C 33.4 °F /  0.8 °C 30.10in /  1019.2hPa West 4.0mph /  6.4km/h 5.0mph /  8km/h 19% 0.00in /  0mm meteobridge W/m2
19:15 79.0 °F /  26.1 °C 34.5 °F /  1.4 °C 30.11in /  1019.5hPa WSW 2.0mph /  3.2km/h 2.0mph /  3.2km/h 20% 0.00in /  0mm meteobridge W/m2
19:21 79.0 °F /  26.1 °C 34.5 °F /  1.4 °C 30.11in /  1019.5hPa WSW 2.0mph /  3.2km/h -999.0mph /  -1607.7km/h 20% 0.00in /  0mm meteobridge W/m2
19:28 79.0 °F /  26.1 °C 34.5 °F /  1.4 °C 30.11in /  1019.5hPa North -999.9mph /  -1609.1km/h -999.0mph /  -1607.7km/h 20% 0.00in /  0mm meteobridge W/m2
Regenstein, Windhoek, Namibia
Compliments of Weather Underground - 2.5 mb